Terminal Aerodrome Forecast
Issued by NWS Grand Junction, CO

Home | Current Version | Previous Version | Text Only | Print | Product List | Glossary On
Versions: 1 2 3 4 5 6 7 8 9 10 11 12 13 14 15 16 17
000
FTUS45 KGJT 300301 AAB
TAFGJT
TAF AMD
KGJT 300301Z 3003/3024 15020G30KT P6SM VCSH BKN040 BKN090
      WS020/04010KT
     FM300500 14012KT P6SM SCT090 BKN140
     FM301800 16004KT P6SM FEW140
     FM302000 23004KT P6SM FEW070 SCT140=

USA.gov is the U.S. government's official web portal to all federal, state and local government web resources and services.